Time;durP1;ratioP1;P1;durP2;ratioP2;P2;SDS_P1;SDS_P2;PMS_P1;PMS_P2;Temp;Humidity;BMP_temperature;BMP_pressure;BME280_temperature;BME280_humidity;BME280_pressure;Samples;Min_cycle;Max_cycle;Signal;HPM_P1;HPM_P2
2021/04/14 00:00:38;;;;;;;2.90;1.90;;;7.00;71.50;;;;;;5071011;28;20192;-77
2021/04/14 00:03:16;;;;;;;2.45;1.30;;;6.90;71.80;;;;;;5053151;28;20245;-77
2021/04/14 00:05:41;;;;;;;2.83;1.70;;;6.90;71.90;;;;;;5071379;28;20175;-77
2021/04/14 00:08:07;;;;;;;2.97;1.47;;;6.90;71.80;;;;;;5071305;28;20168;-77
2021/04/14 00:10:37;;;;;;;2.70;1.40;;;6.90;72.00;;;;;;5040154;28;20192;-78
2021/04/14 00:13:06;;;;;;;2.50;1.10;;;6.80;71.80;;;;;;5070843;28;20168;-77
2021/04/14 00:15:41;;;;;;;2.83;1.33;;;6.80;71.80;;;;;;5072925;28;20188;-78
2021/04/14 00:18:07;;;;;;;2.70;2.20;;;6.70;71.80;;;;;;5074352;28;20164;-78
2021/04/14 00:20:33;;;;;;;4.35;1.10;;;6.70;71.80;;;;;;5073493;28;20647;-79
2021/04/14 00:22:59;;;;;;;2.43;1.57;;;6.60;72.00;;;;;;5074586;28;20210;-78
2021/04/14 00:25:28;;;;;;;2.33;1.50;;;6.60;72.10;;;;;;5074718;28;20915;-77
2021/04/14 00:27:54;;;;;;;2.50;2.00;;;6.60;72.40;;;;;;5074129;28;20259;-78
2021/04/14 00:30:20;;;;;;;4.63;1.93;;;6.50;72.30;;;;;;5073187;28;20223;-78
2021/04/14 00:32:48;;;;;;;4.25;2.55;;;6.50;72.60;;;;;;5074447;28;20176;-77
2021/04/14 00:35:14;;;;;;;3.15;2.55;;;6.40;72.70;;;;;;5056564;28;20169;-77
2021/04/14 00:37:40;;;;;;;2.40;2.10;;;6.40;73.00;;;;;;5056120;28;20172;-76
2021/04/14 00:40:09;;;;;;;2.97;2.20;;;6.30;73.10;;;;;;5074222;28;20547;-77
2021/04/14 00:42:34;;;;;;;3.83;2.13;;;6.30;73.40;;;;;;5056302;28;20169;-77
2021/04/14 00:45:00;;;;;;;3.80;2.40;;;6.20;73.40;;;;;;5073302;28;20160;-78
2021/04/14 00:47:26;;;;;;;3.55;2.40;;;6.10;73.50;;;;;;5078964;28;20168;-78
2021/04/14 00:49:53;;;;;;;4.73;2.53;;;6.10;73.80;;;;;;5075602;22;20223;-79
2021/04/14 00:52:19;;;;;;;5.35;2.03;;;6.00;74.00;;;;;;5056539;28;20175;-79
2021/04/14 00:54:45;;;;;;;4.95;2.45;;;6.00;74.20;;;;;;5062685;28;20179;-79
2021/04/14 00:57:11;;;;;;;2.67;2.27;;;5.90;74.30;;;;;;5075661;28;20186;-79
2021/04/14 00:59:36;;;;;;;2.60;1.77;;;5.80;74.50;;;;;;5094119;28;20632;-79
2021/04/14 01:02:04;;;;;;;3.50;1.80;;;5.80;74.70;;;;;;5075468;28;20175;-79
2021/04/14 01:04:30;;;;;;;5.78;1.83;;;5.80;75.00;;;;;;5075988;28;20195;-79
2021/04/14 01:06:55;;;;;;;3.80;2.53;;;5.80;75.10;;;;;;5093796;28;20217;-79
2021/04/14 01:09:21;;;;;;;4.20;2.70;;;5.70;75.40;;;;;;5094081;28;20527;-79
2021/04/14 01:11:47;;;;;;;3.97;2.83;;;5.70;75.60;;;;;;5094128;28;20156;-80
2021/04/14 01:14:12;;;;;;;3.93;2.80;;;5.60;75.90;;;;;;5075945;28;20183;-79
2021/04/14 01:16:38;;;;;;;4.00;3.10;;;5.60;76.20;;;;;;5075548;28;20703;-79
2021/04/14 01:19:04;;;;;;;6.23;3.50;;;5.50;76.50;;;;;;5094292;28;20220;-79
2021/04/14 01:21:36;;;;;;;4.30;3.00;;;5.50;76.70;;;;;;5099609;28;20187;-79
2021/04/14 01:24:05;;;;;;;2.63;2.10;;;5.50;77.50;;;;;;5075718;28;20195;-80
2021/04/14 01:26:31;;;;;;;6.15;3.03;;;5.40;77.30;;;;;;5093167;28;20246;-80
2021/04/14 01:28:57;;;;;;;3.50;2.93;;;5.40;77.50;;;;;;5094468;28;20325;-79
2021/04/14 01:31:32;;;;;;;4.30;2.87;;;5.30;77.80;;;;;;5095283;28;20596;-79
2021/04/14 01:34:06;;;;;;;4.25;3.10;;;5.30;78.20;;;;;;5094292;28;20618;-79
2021/04/14 01:36:33;;;;;;;4.80;2.50;;;5.30;78.60;;;;;;5093365;28;20168;-79
2021/04/14 01:38:59;;;;;;;4.10;3.15;;;5.20;78.70;;;;;;5093790;28;20262;-79
2021/04/14 01:41:25;;;;;;;3.55;3.05;;;5.20;79.00;;;;;;5093636;28;20191;-80
2021/04/14 01:43:51;;;;;;;4.15;2.50;;;5.20;79.40;;;;;;5093422;28;20196;-80
2021/04/14 01:46:18;;;;;;;4.30;2.25;;;5.20;79.60;;;;;;5093463;28;20217;-79
2021/04/14 01:48:44;;;;;;;3.60;2.40;;;5.10;79.80;;;;;;5093570;28;20175;-79
2021/04/14 01:51:10;;;;;;;3.90;2.23;;;5.10;80.10;;;;;;5093291;28;20247;-79
2021/04/14 01:53:35;;;;;;;3.23;2.37;;;5.10;80.40;;;;;;5075629;28;20603;-80
2021/04/14 01:56:01;;;;;;;4.63;1.97;;;5.00;80.70;;;;;;5058447;28;20593;-79
2021/04/14 01:58:30;;;;;;;2.35;2.15;;;5.00;80.80;;;;;;5080501;28;20523;-79
2021/04/14 02:00:59;;;;;;;3.05;1.80;;;5.00;81.10;;;;;;5058575;28;20286;-79
2021/04/14 02:03:28;;;;;;;2.30;1.38;;;5.00;81.30;;;;;;5093465;28;20199;-79
2021/04/14 02:05:54;;;;;;;3.50;1.80;;;4.90;81.50;;;;;;5074760;28;20171;-79
2021/04/14 02:08:21;;;;;;;4.03;1.50;;;4.90;81.50;;;;;;5092593;28;20171;-79
2021/04/14 02:10:47;;;;;;;3.58;2.65;;;4.90;81.90;;;;;;5092730;28;20951;-79
2021/04/14 02:13:17;;;;;;;3.60;1.87;;;4.80;81.90;;;;;;5074851;28;20174;-79
2021/04/14 02:15:43;;;;;;;2.60;1.70;;;4.80;82.40;;;;;;5092645;28;20632;-79
2021/04/14 02:18:09;;;;;;;2.58;2.28;;;4.80;82.50;;;;;;5092806;28;20202;-79
2021/04/14 02:20:36;;;;;;;3.15;2.30;;;4.80;82.70;;;;;;5092573;28;20188;-79
2021/04/14 02:23:33;;;;;;;3.10;1.75;;;4.70;82.90;;;;;;5092762;28;20196;-79
2021/04/14 02:26:01;;;;;;;3.78;1.88;;;4.70;84.20;;;;;;5072737;28;20180;-79
2021/04/14 02:28:28;;;;;;;2.85;2.03;;;4.70;83.40;;;;;;5073978;28;20168;-79
2021/04/14 02:30:54;;;;;;;3.35;1.95;;;4.60;83.60;;;;;;5074696;28;20796;-79
2021/04/14 02:33:20;;;;;;;4.13;2.00;;;4.60;83.80;;;;;;5074504;28;20168;-80
2021/04/14 02:35:47;;;;;;;2.08;1.60;;;4.60;84.00;;;;;;5097934;28;20657;-80
2021/04/14 02:38:17;;;;;;;2.22;1.60;;;4.60;84.20;;;;;;5091885;28;20205;-79
2021/04/14 02:40:43;;;;;;;3.58;2.15;;;4.60;84.30;;;;;;5092401;28;20199;-79
2021/04/14 02:43:09;;;;;;;2.60;1.53;;;4.50;84.50;;;;;;5074540;28;20199;-78
2021/04/14 02:45:37;;;;;;;3.13;2.00;;;4.50;84.70;;;;;;5074144;28;20572;-79
2021/04/14 02:48:04;;;;;;;3.15;2.30;;;4.50;85.10;;;;;;5091978;28;20164;-79
2021/04/14 02:50:30;;;;;;;3.20;2.20;;;4.40;85.20;;;;;;5074163;28;20279;-79
2021/04/14 02:52:56;;;;;;;2.65;2.10;;;4.40;85.30;;;;;;5057526;28;20186;-79
2021/04/14 02:55:24;;;;;;;3.67;1.60;;;4.40;85.60;;;;;;5092547;28;20167;-79
2021/04/14 02:57:50;;;;;;;2.90;2.33;;;4.30;85.80;;;;;;5073674;28;20168;-79
2021/04/14 03:00:17;;;;;;;4.93;2.20;;;4.30;86.00;;;;;;5074070;28;20592;-79
2021/04/14 03:02:43;;;;;;;5.72;2.00;;;4.30;87.20;;;;;;5073951;28;20213;-80
2021/04/14 03:05:11;;;;;;;2.20;1.87;;;4.30;86.60;;;;;;5057572;28;20168;-80
2021/04/14 03:07:37;;;;;;;2.35;2.15;;;4.30;86.90;;;;;;5073725;28;20282;-79
2021/04/14 03:10:04;;;;;;;3.10;1.80;;;4.30;87.20;;;;;;5092354;28;20226;-79
2021/04/14 03:12:30;;;;;;;3.17;2.20;;;4.20;87.20;;;;;;5098037;28;20580;-79
2021/04/14 03:14:55;;;;;;;3.67;2.10;;;4.20;87.40;;;;;;5057133;28;20195;-79
2021/04/14 03:17:21;;;;;;;2.40;1.70;;;4.20;87.80;;;;;;5091631;28;20564;-79
2021/04/14 03:19:47;;;;;;;4.80;1.80;;;4.20;88.10;;;;;;5092337;28;20248;-80
2021/04/14 03:22:13;;;;;;;3.00;2.67;;;4.20;88.50;;;;;;5073969;28;20578;-80
2021/04/14 03:24:39;;;;;;;4.82;1.95;;;4.20;88.70;;;;;;5092006;28;20211;-80
2021/04/14 03:27:05;;;;;;;3.17;1.77;;;4.20;89.10;;;;;;5091877;28;20175;-80
2021/04/14 03:29:30;;;;;;;2.05;1.23;;;4.10;89.40;;;;;;5057068;28;20671;-80
2021/04/14 03:31:56;;;;;;;4.50;1.87;;;4.10;89.50;;;;;;5092008;28;20171;-80
2021/04/14 03:34:22;;;;;;;2.30;1.70;;;4.10;89.80;;;;;;5092400;28;20598;-80
2021/04/14 03:36:48;;;;;;;2.67;2.13;;;4.10;90.00;;;;;;5091850;28;20255;-80
2021/04/14 03:39:13;;;;;;;2.90;2.13;;;4.10;90.10;;;;;;5073977;28;20176;-79
2021/04/14 03:41:39;;;;;;;3.10;1.87;;;4.10;90.20;;;;;;5074037;28;21123;-79
2021/04/14 03:44:05;;;;;;;2.47;1.70;;;4.10;90.30;;;;;;5092190;28;20213;-80
2021/04/14 03:46:31;;;;;;;2.30;1.90;;;4.10;90.50;;;;;;5091548;28;20620;-80
2021/04/14 03:48:56;;;;;;;2.67;2.13;;;4.00;90.60;;;;;;5097326;28;20168;-80
2021/04/14 03:51:26;;;;;;;6.03;2.20;;;4.00;90.70;;;;;;5063308;28;20640;-80
2021/04/14 03:53:53;;;;;;;2.20;2.00;;;4.00;90.90;;;;;;5077970;28;20175;-80
2021/04/14 03:56:19;;;;;;;3.00;2.03;;;4.00;91.00;;;;;;5095503;28;20168;-80
2021/04/14 03:58:51;;;;;;;6.97;2.28;;;4.00;91.10;;;;;;5077598;28;20542;-80
2021/04/14 04:01:21;;;;;;;2.72;2.20;;;4.00;91.40;;;;;;5077765;28;20605;-80
2021/04/14 04:03:47;;;;;;;3.58;2.00;;;4.00;91.50;;;;;;5077933;28;20199;-79
2021/04/14 04:06:13;;;;;;;2.70;1.93;;;4.00;91.60;;;;;;5096474;28;20176;-80
2021/04/14 04:08:38;;;;;;;2.40;2.20;;;4.00;91.70;;;;;;5061542;28;20172;-80
2021/04/14 04:11:05;;;;;;;3.20;1.73;;;4.00;91.90;;;;;;5061734;28;20663;-80
2021/04/14 04:13:32;;;;;;;3.05;1.95;;;4.00;92.10;;;;;;5096404;28;20644;-81
2021/04/14 04:15:58;;;;;;;3.25;2.00;;;4.00;92.30;;;;;;5095697;28;20199;-80
2021/04/14 04:18:23;;;;;;;3.90;2.35;;;3.90;92.40;;;;;;5097163;28;20175;-81
2021/04/14 04:20:49;;;;;;;2.70;2.17;;;3.90;92.40;;;;;;5078127;28;20192;-81
2021/04/14 04:23:15;;;;;;;4.33;3.10;;;3.90;92.60;;;;;;5095734;28;20191;-81
2021/04/14 04:25:41;;;;;;;4.00;2.27;;;3.90;92.80;;;;;;5096068;28;20562;-82
2021/04/14 04:28:08;;;;;;;4.80;2.40;;;3.90;92.90;;;;;;5104558;28;20619;-81
2021/04/14 04:30:35;;;;;;;2.30;1.88;;;3.90;93.10;;;;;;5099335;28;20175;-81
2021/04/14 04:33:01;;;;;;;3.15;1.90;;;3.90;93.20;;;;;;5098916;28;20164;-81
2021/04/14 04:35:29;;;;;;;3.47;2.42;;;3.90;93.40;;;;;;5085831;28;20164;-81
2021/04/14 04:37:55;;;;;;;2.95;1.98;;;3.90;93.60;;;;;;5104392;28;20187;-81
2021/04/14 04:40:21;;;;;;;4.00;2.00;;;4.00;93.90;;;;;;5086119;28;20187;-82
2021/04/14 04:42:48;;;;;;;4.53;1.88;;;4.00;94.10;;;;;;5086087;28;20164;-79
2021/04/14 04:45:16;;;;;;;3.75;2.40;;;4.00;94.20;;;;;;5105180;28;20254;-80
2021/04/14 04:47:42;;;;;;;4.88;2.80;;;4.10;94.60;;;;;;5096014;28;20183;-80
2021/04/14 04:50:09;;;;;;;7.13;2.93;;;4.10;94.70;;;;;;5076719;28;20200;-80
2021/04/14 04:52:34;;;;;;;5.13;2.90;;;4.20;95.20;;;;;;5095378;28;20562;-80
2021/04/14 04:55:00;;;;;;;3.17;2.70;;;4.20;95.30;;;;;;5095748;28;20175;-79
2021/04/14 04:57:26;;;;;;;5.18;2.92;;;4.30;95.40;;;;;;5076916;28;20175;-79
2021/04/14 04:59:52;;;;;;;4.00;2.60;;;4.40;95.90;;;;;;5076829;28;20191;-80
2021/04/14 05:02:19;;;;;;;2.25;1.98;;;4.50;95.80;;;;;;5076848;28;20187;-81
2021/04/14 05:04:45;;;;;;;4.43;2.72;;;4.60;96.10;;;;;;5100990;28;20217;-80
2021/04/14 05:07:10;;;;;;;4.33;3.00;;;4.70;96.30;;;;;;5094836;28;20251;-80
2021/04/14 05:09:36;;;;;;;3.37;2.10;;;4.80;96.30;;;;;;5076465;28;20643;-80
2021/04/14 05:12:02;;;;;;;3.30;2.80;;;4.90;96.20;;;;;;5094611;28;20198;-80
2021/04/14 05:14:28;;;;;;;3.10;2.80;;;5.00;96.20;;;;;;5094387;28;20175;-80
2021/04/14 05:16:53;;;;;;;4.50;2.50;;;5.00;96.20;;;;;;5093760;28;20316;-81
2021/04/14 05:19:19;;;;;;;4.80;2.90;;;5.00;96.00;;;;;;5075724;28;20657;-82
2021/04/14 05:21:45;;;;;;;3.90;3.27;;;5.00;96.10;;;;;;5094197;28;20163;-81
2021/04/14 05:24:12;;;;;;;5.03;3.30;;;5.00;96.20;;;;;;5093995;28;20195;-80
2021/04/14 05:26:38;;;;;;;3.78;2.90;;;5.10;96.20;;;;;;5093884;28;20170;-81
2021/04/14 05:29:04;;;;;;;4.20;2.47;;;5.10;96.30;;;;;;5076237;28;20702;-80
2021/04/14 05:31:32;;;;;;;3.35;3.05;;;5.10;96.20;;;;;;5075895;28;20598;-81
2021/04/14 05:33:59;;;;;;;3.53;3.22;;;5.10;96.60;;;;;;5075976;28;20199;-80
2021/04/14 05:36:25;;;;;;;7.35;3.20;;;5.20;96.50;;;;;;5075665;28;20263;-80
2021/04/14 05:38:51;;;;;;;4.43;2.80;;;5.20;97.00;;;;;;5094170;28;20220;-80
2021/04/14 05:41:17;;;;;;;3.90;3.10;;;5.20;97.00;;;;;;5080389;28;20613;-80
2021/04/14 05:43:43;;;;;;;4.32;3.45;;;5.20;97.00;;;;;;5093541;28;20198;-80
2021/04/14 05:46:12;;;;;;;4.60;3.53;;;5.20;97.20;;;;;;5093879;28;20198;-80
2021/04/14 05:48:39;;;;;;;3.15;2.85;;;5.30;97.80;;;;;;5093036;28;20156;-79
2021/04/14 05:51:07;;;;;;;4.10;3.15;;;5.30;97.40;;;;;;5093386;28;20206;-79
2021/04/14 05:53:34;;;;;;;6.78;4.03;;;5.40;97.50;;;;;;5076136;28;20076;-81
2021/04/14 05:56:00;;;;;;;4.68;4.28;;;5.50;97.60;;;;;;5096411;28;20229;-79
2021/04/14 05:58:28;;;;;;;5.78;3.47;;;5.60;97.90;;;;;;5095406;28;20513;-79
2021/04/14 06:00:54;;;;;;;5.05;3.13;;;5.70;97.80;;;;;;5095033;28;20199;-79
2021/04/14 06:03:21;;;;;;;4.63;4.15;;;5.80;98.00;;;;;;5077870;28;20638;-80
2021/04/14 06:05:50;;;;;;;5.55;3.45;;;6.00;98.30;;;;;;5101735;28;20176;-79
2021/04/14 06:08:16;;;;;;;4.60;2.60;;;6.20;98.40;;;;;;5094101;28;20164;-80
2021/04/14 06:10:42;;;;;;;4.00;3.70;;;6.50;98.60;;;;;;5095453;28;20237;-81
2021/04/14 06:13:07;;;;;;;4.67;3.50;;;6.60;98.50;;;;;;5075559;28;20175;-81
2021/04/14 06:15:34;;;;;;;7.30;3.77;;;6.70;98.30;;;;;;5077386;28;20202;-78
2021/04/14 06:18:01;;;;;;;6.88;4.22;;;6.80;98.30;;;;;;5096141;28;20167;-78
2021/04/14 06:20:28;;;;;;;5.28;3.42;;;6.90;98.20;;;;;;5074872;28;20195;-79
2021/04/14 06:22:57;;;;;;;7.05;3.70;;;7.00;98.30;;;;;;5074863;28;20172;-79
2021/04/14 06:25:24;;;;;;;7.07;3.63;;;7.20;98.50;;;;;;5092355;28;20224;-76
2021/04/14 06:30:28;;;;;;;4.43;3.45;;;7.50;98.60;;;;;;5076733;28;20199;-79
2021/04/14 06:32:54;;;;;;;4.37;3.67;;;7.70;98.90;;;;;;5076337;28;20164;-78
2021/04/14 06:35:23;;;;;;;6.70;4.75;;;8.10;99.30;;;;;;5075835;28;20700;-78
2021/04/14 06:37:49;;;;;;;7.28;4.22;;;8.80;99.90;;;;;;5092032;28;20178;-78
2021/04/14 06:40:35;;;;;;;5.38;3.67;;;9.60;99.90;;;;;;5057218;28;20721;-79
2021/04/14 06:43:08;;;;;;;8.15;3.70;;;10.70;99.90;;;;;;5091937;28;20163;-79
2021/04/14 06:45:47;;;;;;;5.88;4.75;;;11.70;99.90;;;;;;5091017;28;20755;-78
2021/04/14 06:48:32;;;;;;;4.30;3.60;;;13.10;94.70;;;;;;5074618;28;20171;-79
2021/04/14 06:51:15;;;;;;;4.30;3.40;;;13.80;97.40;;;;;;5103942;22;20673;-80
2021/04/14 06:54:01;;;;;;;4.20;2.80;;;14.80;97.70;;;;;;5090940;28;20581;-80
2021/04/14 06:56:40;;;;;;;3.93;2.57;;;15.80;97.40;;;;;;5091887;28;20581;-79
2021/04/14 06:59:10;;;;;;;4.27;2.70;;;16.80;96.50;;;;;;5092397;28;20637;-81
2021/04/14 07:01:44;;;;;;;3.10;2.70;;;17.40;96.20;;;;;;5092006;28;20593;-81
2021/04/14 07:04:56;;;;;;;4.70;2.90;;;18.00;95.30;;;;;;5091143;28;20672;-79
2021/04/14 07:07:28;;;;;;;4.07;2.70;;;18.60;93.40;;;;;;5092122;28;20561;-79
2021/04/14 07:10:05;;;;;;;3.73;2.73;;;19.20;93.10;;;;;;5092294;28;20622;-79
2021/04/14 07:12:34;;;;;;;6.72;3.40;;;19.70;91.70;;;;;;5090710;28;20464;-80
2021/04/14 07:15:16;;;;;;;3.50;2.77;;;20.30;91.50;;;;;;5090963;28;20183;-80
2021/04/14 07:18:20;;;;;;;3.23;2.63;;;20.70;89.60;;;;;;5077563;28;20594;-80
2021/04/14 07:21:19;;;;;;;3.13;2.73;;;21.20;87.70;;;;;;5049224;28;20990;-80
2021/04/14 07:24:31;;;;;;;5.33;2.40;;;21.70;86.80;;;;;;5065852;28;20632;-79
2021/04/14 07:30:25;;;;;;;3.37;2.37;;;21.50;78.10;;;;;;5090046;28;21183;-80
2021/04/14 07:33:09;;;;;;;4.23;2.63;;;21.00;74.60;;;;;;5092229;28;20576;-81
2021/04/14 07:36:00;;;;;;;2.70;2.30;;;20.20;72.50;;;;;;5093566;28;20561;-79
2021/04/14 07:39:11;;;;;;;2.73;2.40;;;19.70;73.30;;;;;;5074627;28;20577;-79
2021/04/14 07:42:13;;;;;;;4.20;2.13;;;19.70;74.00;;;;;;5093021;28;20604;-79
2021/04/14 07:45:18;;;;;;;4.77;3.20;;;19.70;67.20;;;;;;5073611;28;20676;-79
2021/04/14 07:48:13;;;;;;;4.70;2.70;;;19.40;71.40;;;;;;5091862;28;21059;-80
2021/04/14 07:50:42;;;;;;;3.27;2.50;;;19.30;72.90;;;;;;5091313;28;21268;-77
2021/04/14 07:53:31;;;;;;;5.77;2.60;;;19.40;72.70;;;;;;5073572;28;20625;-78
2021/04/14 07:56:18;;;;;;;2.80;2.40;;;19.70;70.70;;;;;;5092983;28;20650;-79
2021/04/14 07:58:52;;;;;;;4.53;2.73;;;20.00;72.80;;;;;;5090809;28;20633;-79
2021/04/14 08:01:25;;;;;;;4.67;3.27;;;20.60;74.20;;;;;;5091625;28;20586;-79
2021/04/14 08:04:17;;;;;;;4.20;2.33;;;21.30;75.40;;;;;;5092881;28;20573;-79
2021/04/14 08:06:45;;;;;;;3.63;2.73;;;21.80;73.10;;;;;;5092048;28;20574;-82
2021/04/14 08:09:16;;;;;;;3.93;2.50;;;21.90;71.90;;;;;;5097800;28;20680;-83
2021/04/14 08:11:43;;;;;;;2.90;2.33;;;21.70;65.50;;;;;;5108464;28;20648;-82
2021/04/14 08:14:37;;;;;;;5.03;2.30;;;21.20;64.90;;;;;;5096589;28;20724;-82
2021/04/14 08:17:19;;;;;;;4.70;2.90;;;20.90;63.90;;;;;;5073103;28;20586;-80
2021/04/14 08:20:12;;;;;;;2.40;2.20;;;20.70;63.90;;;;;;5091422;28;21136;-82
2021/04/14 08:22:38;;;;;;;4.60;3.00;;;20.50;63.20;;;;;;5090393;28;20668;-80
2021/04/14 08:25:09;;;;;;;4.10;2.40;;;20.40;64.90;;;;;;5091284;28;20576;-81
2021/04/14 08:27:47;;;;;;;4.07;2.27;;;20.60;65.20;;;;;;5090644;28;20590;-81
2021/04/14 08:30:21;;;;;;;2.60;2.10;;;21.00;66.40;;;;;;5077219;28;20686;-80
2021/04/14 08:32:53;;;;;;;6.47;2.20;;;21.60;66.60;;;;;;5096514;28;20564;-81
2021/04/14 08:35:43;;;;;;;3.67;2.60;;;22.30;68.00;;;;;;5091736;28;20584;-80
2021/04/14 08:38:24;;;;;;;5.30;2.30;;;23.20;68.20;;;;;;5095156;28;20596;-80
2021/04/14 08:40:57;;;;;;;5.53;2.60;;;23.70;65.60;;;;;;5088606;28;20622;-79
2021/04/14 08:43:38;;;;;;;3.43;2.60;;;23.90;63.20;;;;;;5081510;28;20613;-79
2021/04/14 08:46:32;;;;;;;3.47;1.73;;;24.10;62.20;;;;;;5041099;28;20598;-80
2021/04/14 08:49:16;;;;;;;2.77;2.57;;;24.40;59.00;;;;;;5074015;28;20600;-80
2021/04/14 08:51:46;;;;;;;2.50;2.00;;;24.60;58.50;;;;;;5093271;28;20620;-80
2021/04/14 08:54:17;;;;;;;5.97;2.10;;;24.30;56.60;;;;;;5093227;28;20637;-80
2021/04/14 08:56:51;;;;;;;3.70;2.47;;;23.70;54.80;;;;;;5076058;28;20573;-79
2021/04/14 08:59:17;;;;;;;4.73;2.80;;;23.00;53.40;;;;;;5093460;28;20655;-79
2021/04/14 09:01:43;;;;;;;3.03;2.77;;;22.00;53.00;;;;;;5093222;28;20660;-77
2021/04/14 09:04:12;;;;;;;4.80;3.00;;;20.90;51.90;;;;;;5093169;28;20585;-79
2021/04/14 09:06:40;;;;;;;4.30;3.20;;;19.90;51.50;;;;;;5059182;28;20703;-79
2021/04/14 09:09:10;;;;;;;6.00;3.97;;;18.80;50.90;;;;;;5097839;28;20565;-79
2021/04/14 09:11:39;;;;;;;7.47;5.23;;;17.80;50.70;;;;;;5094006;28;20980;-80
2021/04/14 09:14:13;;;;;;;4.87;4.40;;;16.80;50.80;;;;;;5092956;28;20985;-80
2021/04/14 09:16:57;;;;;;;4.00;3.60;;;16.00;51.20;;;;;;5076569;28;20570;-82
2021/04/14 09:19:29;;;;;;;5.40;4.90;;;15.30;51.80;;;;;;5076658;28;20213;-81
2021/04/14 09:22:16;;;;;;;5.43;5.03;;;14.60;52.30;;;;;;5094299;28;20195;-80
2021/04/14 09:24:49;;;;;;;6.30;5.38;;;14.20;52.80;;;;;;5094545;28;20201;-81
2021/04/14 09:27:46;;;;;;;7.05;5.93;;;13.80;53.30;;;;;;5094663;28;20235;-82
2021/04/14 09:30:27;;;;;;;6.15;5.55;;;13.50;53.70;;;;;;5097307;28;20548;-80
2021/04/14 09:32:53;;;;;;;7.25;5.93;;;13.30;54.20;;;;;;5076614;28;20164;-79
2021/04/14 09:35:24;;;;;;;11.10;7.37;;;13.40;55.30;;;;;;5094096;28;20170;-80
2021/04/14 09:37:52;;;;;;;7.07;6.13;;;13.80;56.50;;;;;;5092819;28;20562;-79
2021/04/14 09:40:36;;;;;;;6.77;5.50;;;14.50;58.20;;;;;;5092566;28;20683;-79
2021/04/14 09:43:23;;;;;;;4.97;4.53;;;15.50;59.60;;;;;;5075717;28;20655;-79
2021/04/14 09:45:58;;;;;;;4.10;3.70;;;16.60;61.40;;;;;;5093652;28;20627;-81
2021/04/14 09:48:57;;;;;;;4.45;4.05;;;17.60;59.90;;;;;;5092009;28;20763;-80
2021/04/14 09:51:42;;;;;;;5.00;4.47;;;18.50;58.90;;;;;;5090961;28;20215;-78
2021/04/14 09:54:37;;;;;;;5.47;3.67;;;19.10;58.30;;;;;;5093800;28;20755;-81
2021/04/14 09:57:36;;;;;;;4.97;4.43;;;19.70;58.70;;;;;;5091861;28;20581;-80
2021/04/14 10:00:13;;;;;;;;;;;;;;;;;;;;;
2021/04/14 10:03:20;;;;;;;6.10;5.50;;;20.70;57.60;;;;;;5075962;28;21168;-79
2021/04/14 10:06:13;;;;;;;;;;;;;;;;;;;;;
2021/04/14 10:09:29;;;;;;;6.03;5.53;;;21.40;55.30;;;;;;5097616;28;20589;-80
2021/04/14 10:12:36;;;;;;;6.17;5.50;;;21.30;54.40;;;;;;5114691;28;20573;-81
2021/04/14 10:15:37;;;;;;;4.80;4.40;;;21.20;53.70;;;;;;5114904;28;20622;-82
2021/04/14 10:18:37;;;;;;;5.10;4.60;;;20.80;53.60;;;;;;5116437;28;20572;-82
2021/04/14 10:22:16;;;;;;;;;;;;;;;;;;;;;
2021/04/14 10:28:54;;;;;;;4.13;3.73;;;20.90;53.60;;;;;;5106926;28;20589;-81
2021/04/14 10:31:35;;;;;;;4.00;3.60;;;21.40;54.70;;;;;;5104955;28;20591;-81
2021/04/14 10:34:31;;;;;;;4.73;4.23;;;21.80;55.70;;;;;;5103346;28;20636;-81
2021/04/14 10:37:19;;;;;;;5.20;4.20;;;22.20;53.70;;;;;;5100005;28;20557;-80
2021/04/14 10:40:19;;;;;;;5.33;4.10;;;22.50;53.70;;;;;;5102671;28;20570;-81
2021/04/14 10:42:56;;;;;;;3.97;3.67;;;22.80;53.70;;;;;;5065583;28;21006;-81
2021/04/14 10:46:15;;;;;;;5.30;4.80;;;23.20;53.40;;;;;;5094415;28;20586;-81
2021/04/14 10:48:52;;;;;;;6.70;4.63;;;23.40;53.00;;;;;;5086887;28;20619;-82
2021/04/14 10:51:22;;;;;;;4.50;4.10;;;23.70;52.90;;;;;;5093514;28;20670;-81
2021/04/14 10:54:13;;;;;;;5.33;4.87;;;23.80;51.60;;;;;;5089902;28;21064;-81
2021/04/14 10:56:59;;;;;;;5.10;4.70;;;23.50;48.50;;;;;;5096627;28;20583;-80
2021/04/14 10:59:40;;;;;;;4.97;4.53;;;22.90;47.50;;;;;;5099215;28;20773;-80
2021/04/14 11:02:31;;;;;;;4.63;4.23;;;22.60;48.10;;;;;;5080224;28;20590;-79
2021/04/14 11:05:24;;;;;;;;;;;;;;;;;;;;;
2021/04/14 11:08:07;;;;;;;5.23;4.83;;;22.20;48.80;;;;;;5117263;28;20595;-80
2021/04/14 11:11:01;;;;;;;5.70;5.20;;;22.10;47.50;;;;;;5084165;28;20649;-80
2021/04/14 11:13:57;;;;;;;6.57;6.07;;;22.00;46.10;;;;;;5080578;28;21225;-78
2021/04/14 11:17:17;;;;;;;6.40;5.80;;;21.30;42.00;;;;;;5084688;28;20578;-80
2021/04/14 11:20:18;;;;;;;5.30;4.80;;;21.20;44.50;;;;;;5100535;28;20609;-79
2021/04/14 11:22:59;;;;;;;4.63;4.13;;;21.00;45.00;;;;;;5090077;28;20701;-79
2021/04/14 11:25:38;;;;;;;5.10;4.40;;;20.70;44.70;;;;;;5090807;28;20168;-78
2021/04/14 11:29:00;;;;;;;6.68;6.07;;;20.50;45.20;;;;;;5081958;28;20759;-79
2021/04/14 11:32:11;;;;;;;4.57;3.87;;;20.10;42.90;;;;;;5104773;28;20278;-80
2021/04/14 11:35:58;;;;;;;5.07;4.10;;;20.10;44.00;;;;;;5089320;28;21196;-79
2021/04/14 11:38:55;;;;;;;4.40;4.03;;;19.80;44.30;;;;;;5060123;28;20609;-78
2021/04/14 11:41:38;;;;;;;3.50;3.20;;;19.30;43.80;;;;;;5090531;28;20600;-78
2021/04/14 11:44:18;;;;;;;4.10;3.30;;;18.70;43.10;;;;;;5091414;28;20668;-78
2021/04/14 11:47:02;;;;;;;4.60;4.03;;;18.30;43.30;;;;;;5085268;28;20589;-79
2021/04/14 11:49:37;;;;;;;3.97;3.67;;;18.00;43.60;;;;;;5090533;28;20684;-79
2021/04/14 11:52:35;;;;;;;4.53;4.13;;;18.00;45.30;;;;;;5055371;28;20628;-79
2021/04/14 11:55:22;;;;;;;5.03;3.67;;;18.20;45.90;;;;;;5089378;28;20633;-79
2021/04/14 11:58:04;;;;;;;4.10;3.70;;;18.40;45.50;;;;;;5091159;28;20577;-80
2021/04/14 12:00:45;;;;;;;3.77;3.37;;;18.30;44.70;;;;;;5090058;28;20613;-79
2021/04/14 12:03:38;;;;;;;3.73;3.03;;;18.00;44.30;;;;;;5091291;28;20583;-80
2021/04/14 12:06:10;;;;;;;5.30;3.43;;;17.50;42.40;;;;;;5082320;28;20946;-78
2021/04/14 12:08:38;;;;;;;3.50;3.20;;;17.10;43.60;;;;;;5091388;28;20621;-79
2021/04/14 12:11:13;;;;;;;6.13;4.30;;;16.60;43.50;;;;;;5093531;28;20605;-80
2021/04/14 12:13:44;;;;;;;4.33;3.93;;;16.10;43.00;;;;;;5080104;28;20195;-81
2021/04/14 12:16:24;;;;;;;4.28;3.88;;;15.60;42.90;;;;;;5095359;28;20585;-80
2021/04/14 12:19:07;;;;;;;6.25;4.55;;;15.10;43.00;;;;;;5092882;28;20504;-78
2021/04/14 12:21:48;;;;;;;4.47;3.55;;;14.40;42.70;;;;;;5073592;28;20193;-79
2021/04/14 12:24:24;;;;;;;4.32;3.92;;;13.90;43.30;;;;;;5087622;28;20179;-79
2021/04/14 12:26:52;;;;;;;4.20;3.72;;;13.70;43.60;;;;;;5094775;28;20731;-79
2021/04/14 12:32:28;;;;;;;4.90;3.50;;;13.40;44.30;;;;;;5076305;28;20191;-78
2021/04/14 12:35:06;;;;;;;4.57;3.45;;;13.40;45.00;;;;;;5075624;28;20234;-80
2021/04/14 12:37:40;;;;;;;4.18;3.70;;;13.50;45.90;;;;;;5073909;28;20188;-81
2021/04/14 12:40:07;;;;;;;5.05;4.25;;;13.70;47.00;;;;;;5074905;28;20185;-77
2021/04/14 12:42:36;;;;;;;4.90;3.88;;;14.00;47.50;;;;;;5077790;28;20241;-78
2021/04/14 12:45:08;;;;;;;4.43;4.03;;;14.30;48.30;;;;;;5095289;28;20172;-78
2021/04/14 12:47:34;;;;;;;6.13;4.43;;;14.50;48.40;;;;;;5095603;28;21120;-79
2021/04/14 12:49:59;;;;;;;4.65;4.00;;;14.90;49.10;;;;;;5094674;28;20713;-80
2021/04/14 12:52:44;;;;;;;5.00;4.50;;;15.10;49.20;;;;;;5114406;22;20211;-80
2021/04/14 12:55:15;;;;;;;5.82;5.22;;;15.30;49.20;;;;;;5101654;28;20764;-79
2021/04/14 12:57:41;;;;;;;5.23;3.30;;;15.50;48.30;;;;;;5109267;28;20225;-79
2021/04/14 13:00:12;;;;;;;6.57;5.50;;;15.70;48.90;;;;;;5080222;28;20628;-78
2021/04/14 13:02:46;;;;;;;3.80;3.33;;;15.90;48.40;;;;;;5098638;28;20624;-77
2021/04/14 13:05:35;;;;;;;6.10;5.00;;;15.90;47.90;;;;;;5088013;28;20592;-78
2021/04/14 13:08:18;;;;;;;4.23;3.83;;;15.90;47.70;;;;;;5078893;28;20585;-78
2021/04/14 13:10:49;;;;;;;4.60;4.20;;;15.70;46.90;;;;;;5112037;28;20642;-77
2021/04/14 13:13:16;;;;;;;3.60;3.13;;;15.50;46.30;;;;;;5112911;28;20647;-78
2021/04/14 13:15:49;;;;;;;3.97;3.57;;;15.40;46.30;;;;;;5073943;28;20172;-78
2021/04/14 13:18:15;;;;;;;6.20;3.73;;;15.20;46.10;;;;;;5078773;28;20592;-77
2021/04/14 13:20:41;;;;;;;5.20;3.10;;;15.10;46.00;;;;;;5114790;28;20573;-77
2021/04/14 13:23:14;;;;;;;7.00;4.23;;;14.90;45.90;;;;;;5092298;28;20980;-77
2021/04/14 13:26:21;;;;;;;3.85;3.45;;;14.70;46.00;;;;;;5111878;28;20588;-78
2021/04/14 13:28:52;;;;;;;3.95;3.55;;;14.60;46.10;;;;;;5099071;28;20242;-81
2021/04/14 13:31:33;;;;;;;6.53;4.65;;;14.40;46.30;;;;;;5122495;28;20266;-82
2021/04/14 13:34:13;;;;;;;5.82;5.32;;;14.30;47.00;;;;;;5122361;28;20317;-80
2021/04/14 13:37:10;;;;;;;6.13;5.55;;;14.00;47.30;;;;;;5126839;28;20190;-79
2021/04/14 13:39:49;;;;;;;6.75;6.05;;;13.80;48.30;;;;;;5110013;28;20179;-80
2021/04/14 13:42:46;;;;;;;7.03;6.10;;;13.60;48.50;;;;;;5116590;28;20226;-81
2021/04/14 13:45:22;;;;;;;7.32;6.63;;;13.30;49.50;;;;;;5111643;28;20704;-80
2021/04/14 13:48:04;;;;;;;9.38;7.40;;;13.00;52.10;;;;;;5105799;28;20178;-80
2021/04/14 13:50:42;;;;;;;6.65;5.95;;;12.90;51.60;;;;;;5103294;28;20201;-80